Dalhousie Airport


Codes: DALH/
Name: Dalhousie Airport
City:
Country: Australia
Elevation: 0 ft.

Photos at Dalhousie Airport


   Photos courtesy of SpottingLog. You can add your own sightings and photos by signing up for a free trial today.



No photos found.

Weather at Dalhousie Airport


Time (UTC)DescriptionTempratureWindCloud coverageVisibilityPressureHumidity
23-May-2024 21:00Overcast Clouds15°C7 mph, SE96%10000m1020hPa43%
24-May-2024 00:00Overcast Clouds17°C7 mph, SE97%10000m1021hPa40%
24-May-2024 03:00Broken Clouds22°C4 mph, SE52%10000m1020hPa29%
24-May-2024 06:00Scattered Clouds24°C4 mph, SE48%10000m1018hPa23%
24-May-2024 09:00Clear Sky21°C7 mph, SE0%10000m1019hPa29%
24-May-2024 12:00Clear Sky19°C7 mph, SE0%10000m1021hPa33%
24-May-2024 15:00Clear Sky17°C9 mph, SE0%10000m1021hPa41%
24-May-2024 18:00Clear Sky16°C7 mph, SE0%10000m1020hPa46%
24-May-2024 21:00Clear Sky15°C7 mph, SE0%10000m1021hPa49%
25-May-2024 00:00Clear Sky20°C7 mph, E1%10000m1023hPa38%
25-May-2024 03:00Clear Sky24°C7 mph, E0%10000m1021hPa29%
25-May-2024 06:00Few Clouds25°C4 mph, SE23%10000m1019hPa27%
25-May-2024 09:00Clear Sky22°C7 mph, SE10%10000m1021hPa32%
25-May-2024 12:00Few Clouds20°C9 mph, SE21%10000m1022hPa38%
25-May-2024 15:00Few Clouds19°C9 mph, SE13%10000m1022hPa42%
25-May-2024 18:00Clear Sky17°C9 mph, SE4%10000m1022hPa45%
25-May-2024 21:00Few Clouds16°C9 mph, E18%10000m1023hPa51%
26-May-2024 00:00Scattered Clouds20°C9 mph, SE29%10000m1024hPa41%
26-May-2024 03:00Clear Sky25°C9 mph, SE9%10000m1023hPa32%
26-May-2024 06:00Clear Sky26°C9 mph, SE6%10000m1021hPa28%
26-May-2024 09:00Clear Sky22°C9 mph, SE0%10000m1022hPa34%
26-May-2024 12:00Clear Sky20°C11 mph, SE0%10000m1024hPa38%
26-May-2024 15:00Clear Sky18°C9 mph, SE0%10000m1024hPa42%
26-May-2024 18:00Clear Sky16°C9 mph, SE0%10000m1023hPa44%
26-May-2024 21:00Clear Sky15°C9 mph, SE0%10000m1025hPa46%
27-May-2024 00:00Clear Sky19°C11 mph, SE0%10000m1026hPa33%
27-May-2024 03:00Clear Sky23°C11 mph, SE0%10000m1024hPa26%
27-May-2024 06:00Clear Sky24°C9 mph, SE0%10000m1021hPa23%
27-May-2024 09:00Clear Sky21°C9 mph, SE0%10000m1022hPa28%
27-May-2024 12:00Clear Sky18°C11 mph, SE0%10000m1024hPa30%
27-May-2024 15:00Clear Sky16°C9 mph, SE0%10000m1023hPa35%
27-May-2024 18:00Clear Sky15°C9 mph, SE0%10000m1023hPa38%
27-May-2024 21:00Clear Sky14°C9 mph, E0%10000m1023hPa38%
28-May-2024 00:00Clear Sky18°C9 mph, E0%10000m1024hPa29%
28-May-2024 03:00Clear Sky23°C7 mph, NE0%10000m1021hPa26%
28-May-2024 06:00Clear Sky24°C2 mph, NE0%10000m1019hPa27%
28-May-2024 09:00Clear Sky21°C7 mph, SE0%10000m1019hPa33%
28-May-2024 12:00Clear Sky19°C9 mph, SE0%10000m1021hPa37%
28-May-2024 15:00Clear Sky17°C7 mph, E0%10000m1020hPa43%
28-May-2024 18:00Clear Sky16°C7 mph, NE0%10000m1019hPa47%